createdAt,value
2017-11-10T00:01:40.208Z,34.08
2017-11-10T00:04:06.956Z,30.90
2017-11-10T00:06:33.669Z,29.02
2017-11-10T00:09:00.405Z,34.25
2017-11-10T00:11:27.149Z,27.67
2017-11-10T00:13:53.840Z,34.87
2017-11-10T00:16:20.527Z,29.50
2017-11-10T00:18:47.219Z,30.58
2017-11-10T00:21:13.979Z,31.40
2017-11-10T00:23:41.403Z,34.23
2017-11-10T00:26:08.132Z,29.53
2017-11-10T00:28:34.826Z,31.47
2017-11-10T00:31:02.277Z,26.40
2017-11-10T00:33:28.960Z,28.13
2017-11-10T00:35:55.671Z,32.90
2017-11-10T00:38:22.339Z,26.90
2017-11-10T00:40:49.018Z,34.30
2017-11-10T00:43:15.714Z,29.93
2017-11-10T00:45:43.115Z,29.40
2017-11-10T00:48:09.891Z,33.97
2017-11-10T00:50:36.638Z,36.87
2017-11-10T00:53:03.337Z,31.57
2017-11-10T00:55:30.028Z,36.30
2017-11-10T00:57:57.473Z,33.15
2017-11-10T01:00:24.194Z,34.33
2017-11-10T01:02:50.887Z,33.50
2017-11-10T01:05:17.603Z,32.47
2017-11-10T01:07:44.259Z,31.73
2017-11-10T01:10:10.974Z,34.00
2017-11-10T01:12:37.685Z,35.50
2017-11-10T01:15:04.382Z,32.53
2017-11-10T01:17:31.078Z,33.60
2017-11-10T01:19:57.793Z,31.13
2017-11-10T01:22:25.228Z,32.00
2017-11-10T01:24:51.949Z,32.53
2017-11-10T01:27:18.655Z,37.13
2017-11-10T01:29:46.077Z,32.87
2017-11-10T01:32:12.782Z,34.07
2017-11-10T01:34:39.529Z,33.10
2017-11-10T01:37:06.244Z,32.20
2017-11-10T01:39:33.709Z,37.63
2017-11-10T01:42:01.215Z,35.63
2017-11-10T01:44:28.003Z,31.93
2017-11-10T01:46:55.413Z,37.13
2017-11-10T01:49:24.168Z,34.08
2017-11-10T01:51:51.607Z,35.93
2017-11-10T01:54:18.354Z,32.70
2017-11-10T01:56:45.139Z,34.20
2017-11-10T01:59:11.921Z,34.20
2017-11-10T02:01:38.628Z,37.08
2017-11-10T02:04:05.388Z,36.87
2017-11-10T02:06:35.119Z,38.80
2017-11-10T02:09:01.815Z,35.83
2017-11-10T02:11:28.510Z,35.88
2017-11-10T02:13:55.186Z,36.40
2017-11-10T02:16:22.603Z,36.17
2017-11-10T02:18:49.334Z,34.93
2017-11-10T02:21:16.139Z,41.30
2017-11-10T02:23:43.664Z,42.22
2017-11-10T02:26:10.435Z,35.67
2017-11-10T02:28:37.909Z,33.23
2017-11-10T02:31:05.385Z,39.03
2017-11-10T02:33:32.180Z,39.30
2017-11-10T02:35:58.904Z,42.40
2017-11-10T02:38:25.660Z,40.15
2017-11-10T02:40:52.406Z,44.10
2017-11-10T02:43:19.168Z,43.70
2017-11-10T02:45:45.838Z,42.50
2017-11-10T02:48:12.584Z,47.53
2017-11-10T02:50:39.308Z,45.28
2017-11-10T02:53:06.794Z,39.80
2017-11-10T02:55:33.536Z,45.47
2017-11-10T02:58:00.252Z,44.28
2017-11-10T03:00:27.014Z,44.03
2017-11-10T03:02:53.727Z,38.47
2017-11-10T03:05:20.413Z,38.78
2017-11-10T03:07:47.162Z,44.80
2017-11-10T03:10:13.894Z,48.78
2017-11-10T03:12:41.392Z,36.70
2017-11-10T03:15:08.211Z,45.10
2017-11-10T03:17:34.911Z,42.23
2017-11-10T03:20:01.591Z,44.20
2017-11-10T03:22:28.591Z,52.60
2017-11-10T03:24:55.347Z,50.33
2017-11-10T03:27:22.027Z,51.23
2017-11-10T03:29:49.462Z,40.33
2017-11-10T03:32:16.896Z,42.95
2017-11-10T03:34:43.586Z,48.58
2017-11-10T03:37:11.023Z,40.20
2017-11-10T03:39:37.776Z,40.33
2017-11-10T03:42:04.505Z,42.73
2017-11-10T03:44:31.270Z,44.17
2017-11-10T03:46:58.794Z,41.97
2017-11-10T03:49:25.487Z,49.43
2017-11-10T03:51:52.934Z,39.20
2017-11-10T03:54:20.375Z,40.77
2017-11-10T03:56:47.048Z,35.53
2017-11-10T03:59:14.498Z,42.85
2017-11-10T04:01:41.364Z,40.17
2017-11-10T04:04:08.101Z,38.83
2017-11-10T04:06:35.535Z,42.03
2017-11-10T04:09:02.332Z,39.17
2017-11-10T04:11:29.059Z,47.30
2017-11-10T04:13:56.509Z,39.50
2017-11-10T04:16:24.297Z,36.83
2017-11-10T04:18:50.991Z,37.00
2017-11-10T04:21:17.684Z,41.90
2017-11-10T04:23:44.396Z,43.37
2017-11-10T04:26:11.093Z,41.80
2017-11-10T04:28:37.751Z,41.47
2017-11-10T04:31:04.453Z,42.80
2017-11-10T04:33:31.205Z,43.60
2017-11-10T04:35:57.987Z,38.60
2017-11-10T04:38:24.757Z,37.63
2017-11-10T04:40:52.341Z,41.57
2017-11-10T04:43:19.813Z,44.83
2017-11-10T04:45:46.549Z,42.30
2017-11-10T04:48:13.230Z,44.07
2017-11-10T04:50:40.008Z,44.40
2017-11-10T04:53:06.754Z,41.00
2017-11-10T04:55:33.458Z,48.47
2017-11-10T04:58:00.159Z,46.88
2017-11-10T05:00:27.665Z,44.72
2017-11-10T05:02:54.391Z,44.30
2017-11-10T05:05:21.103Z,45.45
2017-11-10T05:07:47.855Z,48.97
2017-11-10T05:10:15.328Z,46.30
2017-11-10T05:12:42.091Z,44.88
2017-11-10T05:15:08.818Z,43.65
2017-11-10T05:17:35.548Z,45.50
2017-11-10T05:20:03.077Z,42.37
2017-11-10T05:22:29.804Z,52.00
2017-11-10T05:24:56.560Z,53.72
2017-11-10T05:27:23.272Z,64.60
2017-11-10T05:29:50.119Z,55.03
2017-11-10T05:32:17.100Z,57.30
2017-11-10T05:34:43.830Z,46.10
2017-11-10T05:37:10.707Z,54.73
2017-11-10T05:39:37.487Z,49.40
2017-11-10T05:42:04.332Z,48.85
2017-11-10T05:44:31.066Z,45.93
2017-11-10T05:46:57.828Z,45.40
2017-11-10T05:49:24.644Z,48.47
2017-11-10T05:51:52.166Z,45.30
2017-11-10T05:54:18.890Z,49.87
2017-11-10T05:56:45.610Z,42.38
2017-11-10T05:59:13.141Z,47.78
2017-11-10T06:01:39.985Z,41.80
2017-11-10T06:04:06.827Z,42.80
2017-11-10T06:06:33.624Z,48.58
2017-11-10T06:09:00.303Z,44.75
2017-11-10T06:11:27.013Z,46.53
2017-11-10T06:13:53.738Z,45.80
2017-11-10T06:16:21.208Z,43.10
2017-11-10T06:18:47.900Z,44.28
2017-11-10T06:21:14.632Z,37.67
2017-11-10T06:23:41.356Z,36.35
2017-11-10T06:26:08.031Z,38.50
2017-11-10T06:28:34.785Z,36.95
2017-11-10T06:31:01.483Z,36.77
2017-11-10T06:33:28.180Z,43.03
2017-11-10T06:35:54.886Z,37.57
2017-11-10T06:38:21.566Z,39.47
2017-11-10T06:40:48.267Z,32.67
2017-11-10T06:43:14.997Z,36.20
2017-11-10T06:45:41.668Z,41.93
2017-11-10T06:48:08.435Z,37.63
2017-11-10T06:50:35.885Z,39.60
2017-11-10T06:53:02.600Z,36.67
2017-11-10T06:55:29.292Z,37.87
2017-11-10T06:57:56.005Z,37.30
2017-11-10T07:00:22.717Z,35.53
2017-11-10T07:02:50.285Z,34.60
2017-11-10T07:05:17.080Z,38.73
2017-11-10T07:07:43.787Z,31.45
2017-11-10T07:10:10.513Z,28.90
2017-11-10T07:12:38.125Z,27.00
2017-11-10T07:15:04.806Z,35.50
2017-11-10T07:17:32.276Z,31.23
2017-11-10T07:19:59.036Z,28.50
2017-11-10T07:22:25.694Z,26.27
2017-11-10T07:24:52.380Z,28.67
2017-11-10T07:27:19.111Z,22.50
2017-11-10T07:29:45.787Z,23.17
2017-11-10T07:32:13.205Z,20.07
2017-11-10T07:34:39.922Z,22.45
2017-11-10T07:37:06.605Z,22.33
2017-11-10T07:39:33.276Z,20.10
2017-11-10T07:42:00.713Z,21.47
2017-11-10T07:44:27.758Z,18.20
2017-11-10T07:46:54.425Z,16.30
2017-11-10T07:49:21.847Z,19.17
2017-11-10T07:51:48.527Z,18.42
2017-11-10T07:54:15.944Z,15.80
2017-11-10T07:56:42.717Z,16.57
2017-11-10T07:59:09.367Z,20.05
2017-11-10T08:01:36.791Z,16.10
2017-11-10T08:04:03.473Z,16.47
2017-11-10T08:06:30.887Z,18.67
2017-11-10T08:08:57.541Z,15.63
2017-11-10T08:11:24.211Z,15.60
2017-11-10T08:13:50.922Z,15.73
2017-11-10T08:16:17.649Z,14.27
2017-11-10T08:18:44.377Z,18.93
2017-11-10T08:21:11.051Z,15.67
2017-11-10T08:23:37.739Z,14.87
2017-11-10T08:26:05.200Z,17.87
2017-11-10T08:28:32.604Z,17.90
2017-11-10T08:30:59.351Z,15.70
2017-11-10T08:33:26.080Z,14.00
2017-11-10T08:35:52.776Z,17.40
2017-11-10T08:38:19.468Z,13.87
2017-11-10T08:40:46.178Z,19.03
2017-11-10T08:43:13.613Z,19.90
2017-11-10T08:45:40.976Z,14.80
2017-11-10T08:48:07.703Z,17.33
2017-11-10T08:50:34.356Z,14.70
2017-11-10T08:53:01.049Z,16.60
2017-11-10T08:55:27.788Z,17.33
2017-11-10T08:57:54.441Z,14.50
2017-11-10T09:00:21.129Z,16.70
2017-11-10T09:02:47.845Z,18.45
2017-11-10T09:05:14.532Z,17.83
2017-11-10T09:07:41.176Z,15.03
2017-11-10T09:10:07.921Z,18.23
2017-11-10T09:12:35.308Z,19.53
2017-11-10T09:15:01.992Z,17.70
2017-11-10T09:17:28.767Z,20.17
2017-11-10T09:19:56.230Z,24.37
2017-11-10T09:22:23.864Z,21.93
2017-11-10T09:24:50.735Z,23.63
2017-11-10T09:27:19.444Z,21.57
2017-11-10T09:29:47.977Z,22.17
2017-11-10T09:32:18.679Z,25.80
2017-11-10T09:34:57.267Z,27.60
2017-11-10T09:50:58.368Z,33.20
2017-11-10T10:07:02.302Z,33.40
2017-11-10T10:09:35.087Z,31.90
2017-11-10T10:12:07.688Z,26.33
2017-11-10T10:27:55.637Z,30.73
2017-11-10T10:30:22.311Z,31.50
2017-11-10T10:32:49.041Z,25.40
2017-11-10T10:35:15.859Z,25.40
2017-11-10T10:37:42.574Z,31.70
2017-11-10T10:40:09.988Z,25.70
2017-11-10T10:42:36.741Z,26.70
2017-11-10T10:45:03.523Z,26.40
2017-11-10T10:47:30.396Z,26.53
2017-11-10T10:49:57.136Z,28.57
2017-11-10T10:52:23.833Z,33.10
2017-11-10T10:54:50.511Z,30.10
2017-11-10T10:57:17.229Z,33.90
2017-11-10T10:59:44.921Z,33.83
2017-11-10T11:02:11.637Z,31.93
2017-11-10T11:04:38.424Z,32.50
2017-11-10T11:07:05.165Z,31.90
2017-11-10T11:09:31.896Z,30.60
2017-11-10T11:11:58.612Z,33.47
2017-11-10T11:14:25.343Z,28.70
2017-11-10T11:16:52.060Z,29.27
2017-11-10T11:19:18.755Z,25.00
2017-11-10T11:21:46.244Z,26.80
2017-11-10T11:24:12.937Z,24.23
2017-11-10T11:26:39.661Z,26.27
2017-11-10T11:29:07.217Z,21.80
2017-11-10T11:31:33.934Z,23.20
2017-11-10T11:34:00.651Z,22.83
2017-11-10T11:36:28.116Z,20.70
2017-11-10T11:38:55.527Z,21.37
2017-11-10T11:41:22.238Z,22.93
2017-11-10T11:43:48.922Z,20.43
2017-11-10T11:46:15.658Z,19.63
2017-11-10T11:48:42.436Z,18.67
2017-11-10T11:51:09.216Z,17.43
2017-11-10T11:53:35.877Z,16.47
2017-11-10T11:56:02.703Z,16.60
2017-11-10T11:58:29.425Z,17.90
2017-11-10T12:00:56.941Z,14.57
2017-11-10T12:03:23.669Z,17.70
2017-11-10T12:05:50.444Z,16.83
2017-11-10T12:08:17.204Z,16.17
2017-11-10T12:10:43.936Z,13.07
2017-11-10T12:13:10.600Z,15.23
2017-11-10T12:15:37.348Z,14.50
2017-11-10T12:18:04.137Z,13.20
2017-11-10T12:20:31.070Z,14.40
2017-11-10T12:22:57.872Z,16.00
2017-11-10T12:25:24.679Z,15.57
2017-11-10T12:27:51.416Z,15.23
2017-11-10T12:30:18.157Z,15.43
2017-11-10T12:32:44.903Z,13.93
2017-11-10T12:35:11.610Z,15.23
2017-11-10T12:37:39.832Z,15.30
2017-11-10T12:40:06.553Z,12.70
2017-11-10T12:42:34.055Z,13.00
2017-11-10T12:45:00.760Z,15.43
2017-11-10T12:47:28.240Z,15.03
2017-11-10T12:49:54.948Z,12.73
2017-11-10T12:52:22.371Z,12.70
2017-11-10T12:54:49.072Z,13.10
2017-11-10T12:57:15.757Z,13.07
2017-11-10T12:59:42.539Z,13.37
2017-11-10T13:02:10.125Z,13.70
2017-11-10T13:04:36.786Z,13.67
2017-11-10T13:07:03.507Z,13.60
2017-11-10T13:09:30.298Z,15.83
2017-11-10T13:11:57.026Z,14.40
2017-11-10T13:14:23.869Z,17.27
2017-11-10T13:16:50.645Z,15.00
2017-11-10T13:19:17.354Z,15.60
2017-11-10T13:21:44.645Z,16.70
2017-11-10T13:24:11.401Z,16.47
2017-11-10T13:26:38.079Z,15.00
2017-11-10T13:29:04.740Z,15.87
2017-11-10T13:31:31.408Z,15.70
2017-11-10T13:33:58.086Z,15.63
2017-11-10T13:36:25.507Z,15.47
2017-11-10T13:38:52.893Z,17.37
2017-11-10T13:41:19.546Z,17.03
2017-11-10T13:43:46.222Z,16.53
2017-11-10T13:46:13.909Z,15.10
2017-11-10T13:48:40.594Z,17.10
2017-11-10T13:51:07.260Z,16.10
2017-11-10T13:53:34.656Z,16.70
2017-11-10T13:56:01.357Z,14.37
2017-11-10T13:58:28.789Z,14.60
2017-11-10T14:00:55.488Z,16.37
2017-11-10T14:03:22.169Z,16.50
2017-11-10T14:05:49.730Z,17.30
2017-11-10T14:08:16.407Z,15.87
2017-11-10T14:10:43.835Z,15.37
2017-11-10T14:13:10.516Z,15.50
2017-11-10T14:15:37.991Z,17.57
2017-11-10T14:18:04.705Z,16.80
2017-11-10T14:20:31.415Z,16.50
2017-11-10T14:22:58.152Z,17.37
2017-11-10T14:25:24.861Z,17.23
2017-11-10T14:27:51.587Z,20.40
2017-11-10T14:30:19.043Z,16.63
2017-11-10T14:32:45.746Z,15.60
2017-11-10T14:35:12.407Z,15.03
2017-11-10T14:37:39.127Z,17.17
2017-11-10T14:40:05.842Z,14.70
2017-11-10T14:42:32.520Z,15.83
2017-11-10T14:44:59.950Z,14.07
2017-11-10T14:47:26.674Z,14.00
2017-11-10T14:49:54.095Z,12.40
2017-11-10T14:52:20.839Z,12.60
2017-11-10T14:54:47.496Z,15.63
2017-11-10T14:57:14.223Z,13.80
2017-11-10T14:59:40.916Z,19.73
2017-11-10T15:02:08.316Z,15.63
2017-11-10T15:04:35.725Z,13.30
2017-11-10T15:07:03.180Z,16.97
2017-11-10T15:09:30.623Z,14.40
2017-11-10T15:11:57.303Z,14.10
2017-11-10T15:14:24.021Z,16.13
2017-11-10T15:16:50.701Z,17.27
2017-11-10T15:19:18.327Z,17.10
2017-11-10T15:21:45.031Z,18.60
2017-11-10T15:24:11.701Z,14.07
2017-11-10T15:26:38.456Z,15.27
2017-11-10T15:29:06.026Z,16.00
2017-11-10T15:31:33.458Z,18.60
2017-11-10T15:34:00.181Z,18.63
2017-11-10T15:36:26.904Z,20.47
2017-11-10T15:38:53.623Z,16.13
2017-11-10T15:41:21.123Z,19.77
2017-11-10T15:43:47.879Z,17.90
2017-11-10T15:46:14.590Z,16.17
2017-11-10T15:48:43.247Z,19.00
2017-11-10T15:51:09.943Z,20.30
2017-11-10T15:53:36.599Z,19.30
2017-11-10T15:56:03.335Z,23.87
2017-11-10T15:58:30.045Z,23.07
2017-11-10T16:00:57.483Z,22.67
2017-11-10T16:03:24.186Z,18.50
2017-11-10T16:05:50.887Z,23.90
2017-11-10T16:08:18.290Z,22.07
2017-11-10T16:10:44.968Z,24.50
2017-11-10T16:13:11.682Z,20.47
2017-11-10T16:15:38.356Z,21.03
2017-11-10T16:18:05.063Z,20.93
2017-11-10T16:20:31.780Z,23.93
2017-11-10T16:22:58.470Z,24.53
2017-11-10T16:25:25.236Z,19.30
2017-11-10T16:27:52.771Z,24.17
2017-11-10T16:30:19.447Z,22.80
2017-11-10T16:32:46.840Z,24.87
2017-11-10T16:35:13.637Z,21.67
2017-11-10T16:37:40.327Z,24.20
2017-11-10T16:40:07.029Z,23.80
2017-11-10T16:42:34.485Z,23.45
2017-11-10T16:45:01.166Z,25.10
2017-11-10T16:47:27.851Z,27.60
2017-11-10T16:49:55.377Z,23.90
2017-11-10T16:52:22.068Z,25.90
2017-11-10T16:54:48.718Z,26.10
2017-11-10T16:57:15.453Z,26.48
2017-11-10T16:59:43.190Z,29.77
2017-11-10T17:02:10.255Z,26.58
2017-11-10T17:04:37.011Z,28.87
2017-11-10T17:07:03.710Z,28.73
2017-11-10T17:09:30.395Z,30.42
2017-11-10T17:11:57.081Z,30.05
2017-11-10T17:14:23.805Z,30.25
2017-11-10T17:16:50.544Z,30.12
2017-11-10T17:19:17.272Z,28.52
2017-11-10T17:21:44.009Z,34.33
2017-11-10T17:24:10.673Z,30.93
2017-11-10T17:26:37.406Z,35.65
2017-11-10T17:29:04.111Z,31.30
2017-11-10T17:31:30.816Z,29.10
2017-11-10T17:33:58.353Z,31.55
2017-11-10T17:36:32.014Z,35.28
2017-11-10T17:38:59.052Z,31.85
2017-11-10T17:41:26.481Z,33.08
2017-11-10T17:43:53.317Z,37.63
2017-11-10T17:46:20.251Z,36.85
2017-11-10T17:48:46.994Z,34.95
2017-11-10T17:51:13.736Z,39.53
2017-11-10T17:53:41.389Z,31.58
2017-11-10T17:56:08.115Z,37.58
2017-11-10T17:58:35.662Z,35.28
2017-11-10T18:01:03.249Z,45.33
2017-11-10T18:03:29.995Z,37.20
2017-11-10T18:05:56.807Z,34.13
2017-11-10T18:08:24.308Z,38.10
2017-11-10T18:10:51.025Z,42.75
2017-11-10T18:13:18.530Z,34.58
2017-11-10T18:15:45.288Z,39.40
2017-11-10T18:18:12.049Z,39.00
2017-11-10T18:20:39.540Z,37.83
2017-11-10T18:23:07.058Z,37.38
2017-11-10T18:25:33.820Z,39.95
2017-11-10T18:28:00.851Z,37.03
2017-11-10T18:30:27.680Z,42.88
2017-11-10T18:32:54.398Z,38.45
2017-11-10T18:35:21.184Z,37.50
2017-11-10T18:37:48.031Z,41.45
2017-11-10T18:40:14.779Z,40.83
2017-11-10T18:42:41.531Z,41.40
2017-11-10T18:45:08.264Z,44.20
2017-11-10T18:47:35.041Z,46.03
2017-11-10T18:50:01.781Z,46.08
2017-11-10T18:52:28.528Z,49.38
2017-11-10T18:54:56.329Z,47.20
2017-11-10T18:57:23.060Z,50.25
2017-11-10T18:59:50.529Z,50.08
2017-11-10T19:02:17.396Z,41.55
2017-11-10T19:04:44.085Z,47.50
2017-11-10T19:07:10.905Z,46.20
2017-11-10T19:09:37.927Z,42.92
2017-11-10T19:12:04.660Z,44.25
2017-11-10T19:14:31.392Z,44.40
2017-11-10T19:16:58.820Z,46.55
2017-11-10T19:19:25.497Z,45.33
2017-11-10T19:21:53.800Z,38.47
2017-11-10T19:24:20.544Z,39.33
2017-11-10T19:26:47.232Z,37.80
2017-11-10T19:29:13.976Z,40.20
2017-11-10T19:31:40.668Z,38.17
2017-11-10T19:34:07.401Z,33.80
2017-11-10T19:36:34.899Z,35.15
2017-11-10T19:39:01.627Z,30.48
2017-11-10T19:41:28.336Z,34.60
2017-11-10T19:43:55.820Z,37.35
2017-11-10T19:46:22.533Z,35.58
2017-11-10T19:48:50.033Z,34.75
2017-11-10T19:51:16.728Z,32.20
2017-11-10T19:53:44.384Z,37.00
2017-11-10T19:56:11.161Z,32.72
2017-11-10T19:58:38.668Z,35.80
2017-11-10T20:01:05.336Z,33.55
2017-11-10T20:03:32.008Z,33.42
2017-11-10T20:06:00.416Z,37.10
2017-11-10T20:08:27.199Z,39.50
2017-11-10T20:10:55.176Z,39.88
2017-11-10T20:13:22.888Z,33.22
2017-11-10T20:15:50.315Z,35.97
2017-11-10T20:18:17.107Z,32.90
2017-11-10T20:20:43.996Z,29.40
2017-11-10T20:23:11.255Z,32.90
2017-11-10T20:25:37.939Z,35.30
2017-11-10T20:28:05.464Z,34.80
2017-11-10T20:30:32.165Z,31.62
2017-11-10T20:32:58.874Z,35.97
2017-11-10T20:35:25.577Z,37.27
2017-11-10T20:37:52.294Z,32.80
2017-11-10T20:40:19.028Z,37.85
2017-11-10T20:42:45.858Z,38.28
2017-11-10T20:45:13.322Z,38.87
2017-11-10T20:47:41.012Z,33.67
2017-11-10T20:50:07.744Z,52.30
2017-11-10T20:52:34.507Z,43.63
2017-11-10T20:55:01.484Z,42.30
2017-11-10T21:00:02.340Z,38.33
2017-11-10T21:02:29.056Z,35.63
2017-11-10T21:04:55.765Z,38.85
2017-11-10T21:07:22.478Z,38.53
2017-11-10T21:09:49.226Z,31.05
2017-11-10T21:12:15.963Z,32.88
2017-11-10T21:14:42.689Z,35.10
2017-11-10T21:17:09.440Z,32.85
2017-11-10T21:19:36.140Z,37.28
2017-11-10T21:22:03.575Z,37.78
2017-11-10T21:24:32.233Z,37.28
2017-11-10T21:26:58.904Z,36.00
2017-11-10T21:29:25.569Z,36.15
2017-11-10T21:31:53.075Z,37.65
2017-11-10T21:34:19.761Z,45.05
2017-11-10T21:36:46.621Z,43.05
2017-11-10T21:39:14.098Z,32.67
2017-11-10T21:41:41.524Z,39.30
2017-11-10T21:44:08.592Z,44.97
2017-11-10T21:46:36.038Z,41.37
2017-11-10T21:51:36.860Z,44.40
2017-11-10T21:54:03.599Z,43.38
2017-11-10T21:56:30.313Z,34.47
2017-11-10T21:58:57.768Z,35.83
2017-11-10T22:01:25.278Z,31.55
2017-11-10T22:03:52.016Z,30.70
2017-11-10T22:06:18.783Z,37.78
2017-11-10T22:08:46.228Z,33.20
2017-11-10T22:11:13.036Z,30.23
2017-11-10T22:13:40.534Z,34.88
2017-11-10T22:16:07.211Z,35.60
2017-11-10T22:18:33.902Z,35.15
2017-11-10T22:21:00.655Z,36.40
2017-11-10T22:23:27.316Z,38.05
2017-11-10T22:25:54.004Z,36.08
2017-11-10T22:28:21.474Z,33.78
2017-11-10T22:30:48.953Z,30.60
2017-11-10T22:33:15.776Z,33.47
2017-11-10T22:35:43.236Z,26.87
2017-11-10T22:38:10.659Z,26.48
2017-11-10T22:40:37.352Z,25.10
2017-11-10T22:43:04.794Z,27.25
2017-11-10T22:45:32.244Z,27.87
2017-11-10T22:47:58.909Z,29.60
2017-11-10T22:50:26.454Z,29.73
2017-11-10T22:52:53.140Z,23.42
2017-11-10T22:55:19.824Z,24.85
2017-11-10T22:57:46.538Z,25.05
2017-11-10T23:00:13.249Z,28.60
2017-11-10T23:02:39.979Z,26.10
2017-11-10T23:05:07.503Z,29.70
2017-11-10T23:07:34.204Z,25.92
2017-11-10T23:10:00.938Z,32.70
2017-11-10T23:12:28.679Z,24.92
2017-11-10T23:14:55.457Z,39.45
2017-11-10T23:17:22.872Z,35.47
2017-11-10T23:19:50.437Z,40.30
2017-11-10T23:22:17.150Z,40.67
2017-11-10T23:24:43.809Z,35.92
2017-11-10T23:27:10.497Z,44.92
2017-11-10T23:29:37.944Z,46.22
2017-11-10T23:32:04.652Z,47.95
2017-11-10T23:34:31.361Z,41.75
2017-11-10T23:36:58.784Z,44.17
2017-11-10T23:39:26.236Z,42.03
2017-11-10T23:41:52.928Z,36.63
2017-11-10T23:44:20.409Z,53.87
2017-11-10T23:46:47.069Z,73.50
2017-11-10T23:49:13.740Z,69.85
2017-11-10T23:51:41.106Z,61.13
2017-11-10T23:54:08.730Z,49.15
2017-11-10T23:56:35.423Z,54.00
2017-11-10T23:59:02.126Z,45.97
